1997 A19697:HSK0297 (1996228S05084)


On this page: IBTrACS data - Map and Plots - Positions - Intensities - Original source data

Summary

Start Aug 14
End Aug 21
Basin SI
LMI 45 kt
Sources jtwc_sh
reunion
neumann
In WMO? Yes
Previous storm 1996 SEVENTEEN-W (WP)
Previous in basin 1997 LINDSAY (SI)
Concurrent storms 1996 KIRK (WP)
1996 TD0812 (WP)
1996 MARTY (WP)
1996 NIKI (WP)
1996 ORSON (WP)
1996 SEVENTEEN-W (WP)
1997 A19697 (SI)
1996 DOLLY (NA)
1996 PIPER (WP)
1996 EDOUARD (NA)
Next in basin Missing
Next storm 1996 DOLLY (NA)

top of page IBTrACS Data: File Access

Image of storm

top of page Plots:

Map of storm track will not appear if FTP is down
Time series of cyclone Maximum Sustained Wind will not appear if FTP is down
Time series of cyclone Minimum Central Pressure will not appear if FTP is down

top of page Track Data:Position

jtwc_sh reunion neumann
Date Lat Lon Lat Lon Lat Lon
1996-08-14 18:00:00 -4.8 84.3 -4.8 84.3
1996-08-15 00:00:00 -5.2 85.2 -5.2 85.2
1996-08-15 06:00:00 -5.5 85.9 -5.5 85.9
1996-08-15 12:00:00 -6.0 86.7 -6.0 86.7
1996-08-15 18:00:00 -6.6 87.4 -6.6 87.4
1996-08-16 00:00:00 -7.1 87.9 -7.1 87.9
1996-08-16 06:00:00 -7.6 87.9 -9.2 86.2 -7.6 87.9
1996-08-16 12:00:00 -8.3 87.6 -9.7 86.6 -8.3 87.6
1996-08-16 18:00:00 -9.1 87.2 -10.1 87.0 -9.1 87.2
1996-08-17 00:00:00 -9.8 86.9 -10.5 87.3 -9.8 86.9
1996-08-17 06:00:00 -10.3 86.6 -10.9 87.2 -10.3 86.6
1996-08-17 12:00:00 -10.8 86.3 -11.3 86.5 -10.8 86.3
1996-08-17 18:00:00 -11.3 86.1 -11.6 86.2 -11.3 86.1
1996-08-18 00:00:00 -11.6 86.0 -11.8 86.2 -11.6 86.0
1996-08-18 06:00:00 -11.9 86.1 -12.0 86.3 -11.9 86.1
1996-08-18 12:00:00 -12.2 86.4 -12.1 86.5 -12.2 86.4
1996-08-18 18:00:00 -12.4 86.9 -12.2 86.7 -12.4 86.9
1996-08-19 00:00:00 -12.4 87.3 -12.3 86.8 -12.4 87.3
1996-08-19 06:00:00 -12.3 87.8 -12.4 86.9 -12.3 87.8
1996-08-19 12:00:00 -12.1 88.3 -12.4 87.4 -12.1 88.3
1996-08-19 18:00:00 -11.9 88.9 -12.2 88.1 -11.9 88.9
1996-08-20 00:00:00 -11.7 89.3 -12.1 88.7 -11.7 89.3
1996-08-20 06:00:00 -11.5 89.7 -11.9 89.3 -11.5 89.7
1996-08-20 12:00:00 -11.3 90.0 -11.7 89.9 -11.3 90.0
1996-08-20 18:00:00 -11.1 90.1 -11.1 90.1
jtwc_sh reunion neumann
1996-08-21 00:00:00 -11.0 89.7 -11.0 89.7
1996-08-21 06:00:00 -11.1 89.3 -11.1 89.3

top of pageTrack Data:Intensity

jtwc_sh reunion neumann
Date Wind Pres Wind Pres Wind Pres
1996-08-14 18:00:00 20. 20.
1996-08-15 00:00:00 25. 25.
1996-08-15 06:00:00 25. 25.
1996-08-15 12:00:00 25. 25.
1996-08-15 18:00:00 25. 25.
1996-08-16 00:00:00 25. 25.
1996-08-16 06:00:00 25. 25. 1000. 25.
1996-08-16 12:00:00 30. 25. 1000. 30.
1996-08-16 18:00:00 30. 25. 1000. 30.
1996-08-17 00:00:00 35. 25. 1000. 35.
1996-08-17 06:00:00 35. 25. 1000. 35.
1996-08-17 12:00:00 35. 25. 1000. 35.
1996-08-17 18:00:00 35. 28. 997. 35.
1996-08-18 00:00:00 45. 30. 995. 45.
1996-08-18 06:00:00 45. 30. 995. 45.
1996-08-18 12:00:00 45. 30. 995. 45.
1996-08-18 18:00:00 40. 30. 995. 40.
1996-08-19 00:00:00 40. 30. 995. 40.
1996-08-19 06:00:00 40. 28. 997. 40.
1996-08-19 12:00:00 40. 28. 997. 40.
1996-08-19 18:00:00 40. 28. 997. 40.
1996-08-20 00:00:00 40. 25. 1000. 40.
1996-08-20 06:00:00 35. 25. 1000. 35.
1996-08-20 12:00:00 30. 25. 1002. 30.
1996-08-20 18:00:00 30. 30.
jtwc_sh reunion neumann
1996-08-21 00:00:00 30. 30.
1996-08-21 06:00:00 25. 25.

top of page Links to source data

Source Source file Format
jtwc_sh bsh021997.txt ATCF
reunion WMO-Best-Tracks.txt:Line=17563:a19697 WMO (old format)
neumann tracks.sh:Storm=1066:HSK0297:BSH021997:JTWC HURDAT